Aviation Digital Data Service (ADDS)

Output produced by METARs form (1328 UTC 24 January 2021)
found at http://www.aviationweather.gov/metar/data/
 
METAR text: VCBI 241310Z 36003KT 9000 NSC 28/19 Q1010 NOSIG
Conditions at: VCBI (COLOMBO/KATUNAYA, LK) observed 1310 UTC 24 January 2021
Temperature: 28.0°C (82°F)
Dewpoint: 19.0°C (66°F) [RH = 58%]
Pressure (altimeter): 29.82 inches Hg (1010.0 mb)
Winds: from the N (360 degrees) at 3 MPH (3 knots; 1.5 m/s)
Visibility: 6 miles ( 9 km)
Ceiling: at least 12,000 feet AGL
Clouds: sky clear below 12,000 feet AGL
Weather: no significant weather observed at this time

METAR text: VCBI 241210Z 02007KT 340V040 CAVOK 30/19 Q1009 NOSIG
Conditions at: VCBI (COLOMBO/KATUNAYA, LK) observed 1210 UTC 24 January 2021
Temperature: 30.0°C (86°F)
Dewpoint: 19.0°C (66°F) [RH = 52%]
Pressure (altimeter): 29.79 inches Hg (1009.0 mb)
Winds: from the NNE (20 degrees) at 8 MPH (7 knots; 3.6 m/s)
Visibility: 6 or more miles (10+ km)
Ceiling: ceiling and visibility are OK
Clouds: unknown
Weather: no significant weather observed at this time

METAR text: VCBI 241110Z 02008KT 340V060 CAVOK 31/19 Q1008 NOSIG
Conditions at: VCBI (COLOMBO/KATUNAYA, LK) observed 1110 UTC 24 January 2021
Temperature: 31.0°C (88°F)
Dewpoint: 19.0°C (66°F) [RH = 49%]
Pressure (altimeter): 29.76 inches Hg (1008.0 mb)
Winds: from the NNE (20 degrees) at 9 MPH (8 knots; 4.1 m/s)
Visibility: 6 or more miles (10+ km)
Ceiling: ceiling and visibility are OK
Clouds: unknown
Weather: no significant weather observed at this time

METAR text: VCBI 241010Z 04009KT 360V060 CAVOK 32/19 Q1009 NOSIG
Conditions at: VCBI (COLOMBO/KATUNAYA, LK) observed 1010 UTC 24 January 2021
Temperature: 32.0°C (90°F)
Dewpoint: 19.0°C (66°F) [RH = 46%]
Pressure (altimeter): 29.79 inches Hg (1009.0 mb)
Winds: from the NE (40 degrees) at 10 MPH (9 knots; 4.6 m/s)
Visibility: 6 or more miles (10+ km)
Ceiling: ceiling and visibility are OK
Clouds: unknown
Weather: no significant weather observed at this time

METAR text: VCBI 240910Z 04009KT 340V080 CAVOK 32/19 Q1009 NOSIG
Conditions at: VCBI (COLOMBO/KATUNAYA, LK) observed 0910 UTC 24 January 2021
Temperature: 32.0°C (90°F)
Dewpoint: 19.0°C (66°F) [RH = 46%]
Pressure (altimeter): 29.79 inches Hg (1009.0 mb)
Winds: from the NE (40 degrees) at 10 MPH (9 knots; 4.6 m/s)
Visibility: 6 or more miles (10+ km)
Ceiling: ceiling and visibility are OK
Clouds: unknown
Weather: no significant weather observed at this time

METAR text: VCBI 240810Z 04012KT 340V070 CAVOK 31/19 Q1010 NOSIG
Conditions at: VCBI (COLOMBO/KATUNAYA, LK) observed 0810 UTC 24 January 2021
Temperature: 31.0°C (88°F)
Dewpoint: 19.0°C (66°F) [RH = 49%]
Pressure (altimeter): 29.82 inches Hg (1010.0 mb)
Winds: from the NE (40 degrees) at 14 MPH (12 knots; 6.2 m/s)
Visibility: 6 or more miles (10+ km)
Ceiling: ceiling and visibility are OK
Clouds: unknown
Weather: no significant weather observed at this time

METAR text: VCBI 240710Z 03008KT 340V070 CAVOK 31/18 Q1011 NOSIG
Conditions at: VCBI (COLOMBO/KATUNAYA, LK) observed 0710 UTC 24 January 2021
Temperature: 31.0°C (88°F)
Dewpoint: 18.0°C (64°F) [RH = 46%]
Pressure (altimeter): 29.85 inches Hg (1011.0 mb)
Winds: from the NNE (30 degrees) at 9 MPH (8 knots; 4.1 m/s)
Visibility: 6 or more miles (10+ km)
Ceiling: ceiling and visibility are OK
Clouds: unknown
Weather: no significant weather observed at this time

METAR text: VCBI 240610Z 04010KT 350V080 CAVOK 30/18 Q1012 NOSIG
Conditions at: VCBI (COLOMBO/KATUNAYA, LK) observed 0610 UTC 24 January 2021
Temperature: 30.0°C (86°F)
Dewpoint: 18.0°C (64°F) [RH = 49%]
Pressure (altimeter): 29.88 inches Hg (1012.0 mb)
Winds: from the NE (40 degrees) at 12 MPH (10 knots; 5.1 m/s)
Visibility: 6 or more miles (10+ km)
Ceiling: ceiling and visibility are OK
Clouds: unknown
Weather: no significant weather observed at this time

METAR text: VCBI 240510Z 03008KT CAVOK 29/19 Q1013 NOSIG
Conditions at: VCBI (COLOMBO/KATUNAYA, LK) observed 0510 UTC 24 January 2021
Temperature: 29.0°C (84°F)
Dewpoint: 19.0°C (66°F) [RH = 55%]
Pressure (altimeter): 29.91 inches Hg (1013.0 mb)
Winds: from the NNE (30 degrees) at 9 MPH (8 knots; 4.1 m/s)
Visibility: 6 or more miles (10+ km)
Ceiling: ceiling and visibility are OK
Clouds: unknown
Weather: no significant weather observed at this time

METAR text: VCBI 240410Z 04007KT CAVOK 28/21 Q1013 NOSIG
Conditions at: VCBI (COLOMBO/KATUNAYA, LK) observed 0410 UTC 24 January 2021
Temperature: 28.0°C (82°F)
Dewpoint: 21.0°C (70°F) [RH = 66%]
Pressure (altimeter): 29.91 inches Hg (1013.0 mb)
Winds: from the NE (40 degrees) at 8 MPH (7 knots; 3.6 m/s)
Visibility: 6 or more miles (10+ km)
Ceiling: ceiling and visibility are OK
Clouds: unknown
Weather: no significant weather observed at this time

METAR text: VCBI 240310Z 04006KT 010V070 CAVOK 25/22 Q1013 NOSIG
Conditions at: VCBI (COLOMBO/KATUNAYA, LK) observed 0310 UTC 24 January 2021
Temperature: 25.0°C (77°F)
Dewpoint: 22.0°C (72°F) [RH = 83%]
Pressure (altimeter): 29.91 inches Hg (1013.0 mb)
Winds: from the NE (40 degrees) at 7 MPH (6 knots; 3.1 m/s)
Visibility: 6 or more miles (10+ km)
Ceiling: ceiling and visibility are OK
Clouds: unknown
Weather: no significant weather observed at this time

METAR text: VCBI 240210Z 03004KT 9000 NSC 23/21 Q1012 NOSIG
Conditions at: VCBI (COLOMBO/KATUNAYA, LK) observed 0210 UTC 24 January 2021
Temperature: 23.0°C (73°F)
Dewpoint: 21.0°C (70°F) [RH = 89%]
Pressure (altimeter): 29.88 inches Hg (1012.0 mb)
Winds: from the NNE (30 degrees) at 5 MPH (4 knots; 2.1 m/s)
Visibility: 6 miles ( 9 km)
Ceiling: at least 12,000 feet AGL
Clouds: sky clear below 12,000 feet AGL
Weather: no significant weather observed at this time

METAR text: VCBI 240110Z 08002KT 8000 NSC 22/21 Q1010 NOSIG
Conditions at: VCBI (COLOMBO/KATUNAYA, LK) observed 0110 UTC 24 January 2021
Temperature: 22.0°C (72°F)
Dewpoint: 21.0°C (70°F) [RH = 94%]
Pressure (altimeter): 29.82 inches Hg (1010.0 mb)
Winds: from the E (80 degrees) at 2 MPH (2 knots; 1.0 m/s)
Visibility: 5 miles ( 8 km)
Ceiling: at least 12,000 feet AGL
Clouds: sky clear below 12,000 feet AGL
Weather: no significant weather observed at this time

METAR text: VCBI 240010Z 04002KT CAVOK 22/20 Q1010 NOSIG
Conditions at: VCBI (COLOMBO/KATUNAYA, LK) observed 0010 UTC 24 January 2021
Temperature: 22.0°C (72°F)
Dewpoint: 20.0°C (68°F) [RH = 88%]
Pressure (altimeter): 29.82 inches Hg (1010.0 mb)
Winds: from the NE (40 degrees) at 2 MPH (2 knots; 1.0 m/s)
Visibility: 6 or more miles (10+ km)
Ceiling: ceiling and visibility are OK
Clouds: unknown
Weather: no significant weather observed at this time

METAR text: VCBI 232310Z 06003KT CAVOK 22/21 Q1010 NOSIG
Conditions at: VCBI (COLOMBO/KATUNAYA, LK) observed 2310 UTC 23 January 2021
Temperature: 22.0°C (72°F)
Dewpoint: 21.0°C (70°F) [RH = 94%]
Pressure (altimeter): 29.82 inches Hg (1010.0 mb)
Winds: from the ENE (60 degrees) at 3 MPH (3 knots; 1.5 m/s)
Visibility: 6 or more miles (10+ km)
Ceiling: ceiling and visibility are OK
Clouds: unknown
Weather: no significant weather observed at this time

METAR text: VCBI 232210Z 06003KT 020V080 CAVOK 23/21 Q1009 NOSIG
Conditions at: VCBI (COLOMBO/KATUNAYA, LK) observed 2210 UTC 23 January 2021
Temperature: 23.0°C (73°F)
Dewpoint: 21.0°C (70°F) [RH = 89%]
Pressure (altimeter): 29.79 inches Hg (1009.0 mb)
Winds: from the ENE (60 degrees) at 3 MPH (3 knots; 1.5 m/s)
Visibility: 6 or more miles (10+ km)
Ceiling: ceiling and visibility are OK
Clouds: unknown
Weather: no significant weather observed at this time

METAR text: VCBI 232110Z 05005KT CAVOK 23/21 Q1010 NOSIG
Conditions at: VCBI (COLOMBO/KATUNAYA, LK) observed 2110 UTC 23 January 2021
Temperature: 23.0°C (73°F)
Dewpoint: 21.0°C (70°F) [RH = 89%]
Pressure (altimeter): 29.82 inches Hg (1010.0 mb)
Winds: from the NE (50 degrees) at 6 MPH (5 knots; 2.6 m/s)
Visibility: 6 or more miles (10+ km)
Ceiling: ceiling and visibility are OK
Clouds: unknown
Weather: no significant weather observed at this time

METAR text: VCBI 232010Z 06004KT CAVOK 23/21 Q1010 NOSIG
Conditions at: VCBI (COLOMBO/KATUNAYA, LK) observed 2010 UTC 23 January 2021
Temperature: 23.0°C (73°F)
Dewpoint: 21.0°C (70°F) [RH = 89%]
Pressure (altimeter): 29.82 inches Hg (1010.0 mb)
Winds: from the ENE (60 degrees) at 5 MPH (4 knots; 2.1 m/s)
Visibility: 6 or more miles (10+ km)
Ceiling: ceiling and visibility are OK
Clouds: unknown
Weather: no significant weather observed at this time

METAR text: VCBI 231910Z 05004KT CAVOK 24/21 Q1011 NOSIG
Conditions at: VCBI (COLOMBO/KATUNAYA, LK) observed 1910 UTC 23 January 2021
Temperature: 24.0°C (75°F)
Dewpoint: 21.0°C (70°F) [RH = 83%]
Pressure (altimeter): 29.85 inches Hg (1011.0 mb)
Winds: from the NE (50 degrees) at 5 MPH (4 knots; 2.1 m/s)
Visibility: 6 or more miles (10+ km)
Ceiling: ceiling and visibility are OK
Clouds: unknown
Weather: no significant weather observed at this time

METAR text: VCBI 231810Z VRB02KT CAVOK 25/22 Q1012 NOSIG
Conditions at: VCBI (COLOMBO/KATUNAYA, LK) observed 1810 UTC 23 January 2021
Temperature: 25.0°C (77°F)
Dewpoint: 22.0°C (72°F) [RH = 83%]
Pressure (altimeter): 29.88 inches Hg (1012.0 mb)
Winds: variable direction winds at 2 MPH (2 knots; 1.0 m/s)
Visibility: 6 or more miles (10+ km)
Ceiling: ceiling and visibility are OK
Clouds: unknown
Weather: no significant weather observed at this time

METAR text: VCBI 231710Z VRB02KT CAVOK 26/21 Q1012 NOSIG
Conditions at: VCBI (COLOMBO/KATUNAYA, LK) observed 1710 UTC 23 January 2021
Temperature: 26.0°C (79°F)
Dewpoint: 21.0°C (70°F) [RH = 74%]
Pressure (altimeter): 29.88 inches Hg (1012.0 mb)
Winds: variable direction winds at 2 MPH (2 knots; 1.0 m/s)
Visibility: 6 or more miles (10+ km)
Ceiling: ceiling and visibility are OK
Clouds: unknown
Weather: no significant weather observed at this time

METAR text: VCBI 231610Z 05003KT CAVOK 26/21 Q1012 NOSIG
Conditions at: VCBI (COLOMBO/KATUNAYA, LK) observed 1610 UTC 23 January 2021
Temperature: 26.0°C (79°F)
Dewpoint: 21.0°C (70°F) [RH = 74%]
Pressure (altimeter): 29.88 inches Hg (1012.0 mb)
Winds: from the NE (50 degrees) at 3 MPH (3 knots; 1.5 m/s)
Visibility: 6 or more miles (10+ km)
Ceiling: ceiling and visibility are OK
Clouds: unknown
Weather: no significant weather observed at this time

METAR text: VCBI 231510Z 02003KT 9000 NSC 27 21 Q1011 NOSIG
Conditions at: VCBI (COLOMBO/KATUNAYA, LK) observed 1510 UTC 23 January 2021
Temperature: missing
Dewpoint: missing
Pressure (altimeter): 29.85 inches Hg (1011.0 mb)
Winds: from the NNE (20 degrees) at 3 MPH (3 knots; 1.5 m/s)
Visibility: 6 miles ( 9 km)
Ceiling: at least 12,000 feet AGL
Clouds: sky clear below 12,000 feet AGL
Weather: no significant weather observed at this time

METAR text: VCBI 231410Z 36002KT 8000 NSC 28/21 Q1010 NOSIG
Conditions at: VCBI (COLOMBO/KATUNAYA, LK) observed 1410 UTC 23 January 2021
Temperature: 28.0°C (82°F)
Dewpoint: 21.0°C (70°F) [RH = 66%]
Pressure (altimeter): 29.82 inches Hg (1010.0 mb)
Winds: from the N (360 degrees) at 2 MPH (2 knots; 1.0 m/s)
Visibility: 5 miles ( 8 km)
Ceiling: at least 12,000 feet AGL
Clouds: sky clear below 12,000 feet AGL
Weather: no significant weather observed at this time

METAR text: VCBI 231310Z 01002KT 8000 NSC 29/21 Q1010 NOSIG
Conditions at: VCBI (COLOMBO/KATUNAYA, LK) observed 1310 UTC 23 January 2021
Temperature: 29.0°C (84°F)
Dewpoint: 21.0°C (70°F) [RH = 62%]
Pressure (altimeter): 29.82 inches Hg (1010.0 mb)
Winds: from the N (10 degrees) at 2 MPH (2 knots; 1.0 m/s)
Visibility: 5 miles ( 8 km)
Ceiling: at least 12,000 feet AGL
Clouds: sky clear below 12,000 feet AGL
Weather: no significant weather observed at this time

METAR text: VCBI 231210Z 03005KT CAVOK 31/21 Q1009 NOSIG
Conditions at: VCBI (COLOMBO/KATUNAYA, LK) observed 1210 UTC 23 January 2021
Temperature: 31.0°C (88°F)
Dewpoint: 21.0°C (70°F) [RH = 55%]
Pressure (altimeter): 29.79 inches Hg (1009.0 mb)
Winds: from the NNE (30 degrees) at 6 MPH (5 knots; 2.6 m/s)
Visibility: 6 or more miles (10+ km)
Ceiling: ceiling and visibility are OK
Clouds: unknown
Weather: no significant weather observed at this time

METAR text: VCBI 231110Z 04010KT 9999 FEW020TCU 32/21 Q1008 NOSIG RMK SE
Conditions at: VCBI (COLOMBO/KATUNAYA, LK) observed 1110 UTC 23 January 2021
Temperature: 32.0°C (90°F)
Dewpoint: 21.0°C (70°F) [RH = 52%]
Pressure (altimeter): 29.76 inches Hg (1008.0 mb)
Winds: from the NE (40 degrees) at 12 MPH (10 knots; 5.1 m/s)
Visibility: 6 or more miles (10+ km)
Ceiling: at least 12,000 feet AGL
Clouds: few clouds at 2000 feet AGL
Weather: no significant weather observed at this time

METAR text: VCBI 231010Z 03009KT 360V080 9999 FEW020 32/21 Q1008 NOSIG
Conditions at: VCBI (COLOMBO/KATUNAYA, LK) observed 1010 UTC 23 January 2021
Temperature: 32.0°C (90°F)
Dewpoint: 21.0°C (70°F) [RH = 52%]
Pressure (altimeter): 29.76 inches Hg (1008.0 mb)
Winds: from the NNE (30 degrees) at 10 MPH (9 knots; 4.6 m/s)
Visibility: 6 or more miles (10+ km)
Ceiling: at least 12,000 feet AGL
Clouds: few clouds at 2000 feet AGL
Weather: no significant weather observed at this time

METAR text: VCBI 230910Z 03010KT 350V060 9999 FEW020 32/21 Q1009 NOSIG
Conditions at: VCBI (COLOMBO/KATUNAYA, LK) observed 0910 UTC 23 January 2021
Temperature: 32.0°C (90°F)
Dewpoint: 21.0°C (70°F) [RH = 52%]
Pressure (altimeter): 29.79 inches Hg (1009.0 mb)
Winds: from the NNE (30 degrees) at 12 MPH (10 knots; 5.1 m/s)
Visibility: 6 or more miles (10+ km)
Ceiling: at least 12,000 feet AGL
Clouds: few clouds at 2000 feet AGL
Weather: no significant weather observed at this time

METAR text: VCBI 230810Z 02008KT 360V060 9999 FEW020 32/21 Q1010 NOSIG
Conditions at: VCBI (COLOMBO/KATUNAYA, LK) observed 0810 UTC 23 January 2021
Temperature: 32.0°C (90°F)
Dewpoint: 21.0°C (70°F) [RH = 52%]
Pressure (altimeter): 29.82 inches Hg (1010.0 mb)
Winds: from the NNE (20 degrees) at 9 MPH (8 knots; 4.1 m/s)
Visibility: 6 or more miles (10+ km)
Ceiling: at least 12,000 feet AGL
Clouds: few clouds at 2000 feet AGL
Weather: no significant weather observed at this time

METAR text: VCBI 230710Z 04009KT 360V080 9999 FEW020 32/20 Q1011 NOSIG
Conditions at: VCBI (COLOMBO/KATUNAYA, LK) observed 0710 UTC 23 January 2021
Temperature: 32.0°C (90°F)
Dewpoint: 20.0°C (68°F) [RH = 49%]
Pressure (altimeter): 29.85 inches Hg (1011.0 mb)
Winds: from the NE (40 degrees) at 10 MPH (9 knots; 4.6 m/s)
Visibility: 6 or more miles (10+ km)
Ceiling: at least 12,000 feet AGL
Clouds: few clouds at 2000 feet AGL
Weather: no significant weather observed at this time

METAR text: VCBI 230610Z 02010KT 360V060 CAVOK 32/19 Q1012 NOSIG
Conditions at: VCBI (COLOMBO/KATUNAYA, LK) observed 0610 UTC 23 January 2021
Temperature: 32.0°C (90°F)
Dewpoint: 19.0°C (66°F) [RH = 46%]
Pressure (altimeter): 29.88 inches Hg (1012.0 mb)
Winds: from the NNE (20 degrees) at 12 MPH (10 knots; 5.1 m/s)
Visibility: 6 or more miles (10+ km)
Ceiling: ceiling and visibility are OK
Clouds: unknown
Weather: no significant weather observed at this time

METAR text: VCBI 230510Z 04005KT CAVOK 30/20 Q1012 NOSIG
Conditions at: VCBI (COLOMBO/KATUNAYA, LK) observed 0510 UTC 23 January 2021
Temperature: 30.0°C (86°F)
Dewpoint: 20.0°C (68°F) [RH = 55%]
Pressure (altimeter): 29.88 inches Hg (1012.0 mb)
Winds: from the NE (40 degrees) at 6 MPH (5 knots; 2.6 m/s)
Visibility: 6 or more miles (10+ km)
Ceiling: ceiling and visibility are OK
Clouds: unknown
Weather: no significant weather observed at this time

METAR text: VCBI 230410Z 04005KT CAVOK 29/21 Q1012 NOSIG
Conditions at: VCBI (COLOMBO/KATUNAYA, LK) observed 0410 UTC 23 January 2021
Temperature: 29.0°C (84°F)
Dewpoint: 21.0°C (70°F) [RH = 62%]
Pressure (altimeter): 29.88 inches Hg (1012.0 mb)
Winds: from the NE (40 degrees) at 6 MPH (5 knots; 2.6 m/s)
Visibility: 6 or more miles (10+ km)
Ceiling: ceiling and visibility are OK
Clouds: unknown
Weather: no significant weather observed at this time

METAR text: VCBI 230310Z 07005KT CAVOK 26/22 Q1012 NOSIG
Conditions at: VCBI (COLOMBO/KATUNAYA, LK) observed 0310 UTC 23 January 2021
Temperature: 26.0°C (79°F)
Dewpoint: 22.0°C (72°F) [RH = 79%]
Pressure (altimeter): 29.88 inches Hg (1012.0 mb)
Winds: from the ENE (70 degrees) at 6 MPH (5 knots; 2.6 m/s)
Visibility: 6 or more miles (10+ km)
Ceiling: ceiling and visibility are OK
Clouds: unknown
Weather: no significant weather observed at this time

METAR text: VCBI 230210Z 05003KT 9000 NSC 24/22 Q1011 NOSIG
Conditions at: VCBI (COLOMBO/KATUNAYA, LK) observed 0210 UTC 23 January 2021
Temperature: 24.0°C (75°F)
Dewpoint: 22.0°C (72°F) [RH = 89%]
Pressure (altimeter): 29.85 inches Hg (1011.0 mb)
Winds: from the NE (50 degrees) at 3 MPH (3 knots; 1.5 m/s)
Visibility: 6 miles ( 9 km)
Ceiling: at least 12,000 feet AGL
Clouds: sky clear below 12,000 feet AGL
Weather: no significant weather observed at this time

Forecast for: VCBI (COLOMBO/KATUNAYA, LK)
Text: TAF VCBI 241100Z 2412/2518 03010KT 9999 FEW020 TX32/2508Z TN22/2500Z
Forecast period: 1200 UTC 24 January 2021 to 1800 UTC 25 January 2021
Forecast type: FROM: standard forecast or significant change
Winds: from the NNE (30 degrees) at 12 MPH (10 knots; 5.1 m/s)
Visibility: 6 or more miles (10+ km)
Ceiling: at least 12,000 feet AGL
Clouds: few clouds at 2000 feet AGL
Weather: no significant weather forecast for this period
Text: TEMPO 2500/2502 5000 BR
Forecast period: 0000 to 0200 UTC 25 January 2021
Forecast type: TEMPORARY: The following changes expected for less than half the time period
Visibility: 3 miles (5 km)
Ceiling: unknown
Clouds: missing
Weather: BR  (mist)